Time;durP1;ratioP1;P1;durP2;ratioP2;P2;SDS_P1;SDS_P2;PMS_P1;PMS_P2;Temp;Humidity;BMP_temperature;BMP_pressure;BME280_temperature;BME280_humidity;BME280_pressure;Samples;Min_cycle;Max_cycle;Signal;HPM_P1;HPM_P2
2024/03/15 00:00:11;;;;;;;;;;;;;;;;;;5048131;28;20374;-65
2024/03/15 00:02:37;;;;;;;;;;;;;;;;;;5034091;28;20470;-66
2024/03/15 00:05:03;;;;;;;;;;;;;;;;;;5046949;28;20548;-66
2024/03/15 00:07:29;;;;;;;;;;;;;;;;;;5049843;28;20067;-66
2024/03/15 00:09:55;;;;;;;;;;;;;;;;;;5048097;28;19928;-66
2024/03/15 00:12:21;;;;;;;;;;;;;;;;;;5030125;28;19925;-66
2024/03/15 00:14:47;;;;;;;;;;;;;;;;;;5051488;28;20632;-66
2024/03/15 00:17:13;;;;;;;;;;;;;;;;;;5049648;28;19964;-65
2024/03/15 00:19:40;;;;;;;;;;;;;;;;;;5051617;28;19920;-66
2024/03/15 00:22:08;;;;;;;;;;;;;;;;;;5051710;28;19979;-65
2024/03/15 00:24:34;;;;;;;;;;;;;;;;;;5050345;28;20334;-65
2024/03/15 00:27:00;;;;;;;;;;;;;;;;;;5044948;28;19925;-65
2024/03/15 00:29:27;;;;;;;;;;;;;;;;;;5052146;28;19927;-65
2024/03/15 00:31:55;;;;;;;;;;;;;;;;;;5047953;28;19968;-65
2024/03/15 00:34:21;;;;;;;;;;;;;;;;;;5031944;28;19925;-65
2024/03/15 00:36:47;;;;;;;;;;;;;;;;;;5047844;28;20406;-65
2024/03/15 00:39:14;;;;;;;;;;;;;;;;;;5030434;28;19921;-65
2024/03/15 00:41:40;;;;;;;;;;;;;;;;;;5031241;28;19925;-66
2024/03/15 00:44:06;;;;;;;;;;;;;;;;;;5030697;28;19975;-66
2024/03/15 00:46:32;;;;;;;;;;;;;;;;;;5048536;28;19929;-66
2024/03/15 00:48:58;;;;;;;;;;;;;;;;;;5050115;28;19925;-66
2024/03/15 00:51:25;;;;;;;;;;;;;;;;;;5048184;28;20073;-66
2024/03/15 00:53:51;;;;;;;;;;;;;;;;;;5051831;28;19936;-66
2024/03/15 00:56:17;;;;;;;;;;;;;;;;;;5050023;28;19921;-66
2024/03/15 00:58:43;;;;;;;;;;;;;;;;;;5040277;28;20273;-67
2024/03/15 01:01:10;;;;;;;;;;;;;;;;;;5051875;28;19929;-65
2024/03/15 01:03:36;;;;;;;;;;;;;;;;;;5047617;28;20258;-65
2024/03/15 01:06:02;;;;;;;;;;;;;;;;;;5050935;28;19932;-65
2024/03/15 01:08:28;;;;;;;;;;;;;;;;;;5043205;28;19924;-65
2024/03/15 01:10:54;;;;;;;;;;;;;;;;;;5034250;28;19921;-65
2024/03/15 01:13:20;;;;;;;;;;;;;;;;;;5050594;28;20066;-66
2024/03/15 01:15:46;;;;;;;;;;;;;;;;;;5045207;28;20003;-66
2024/03/15 01:18:12;;;;;;;;;;;;;;;;;;5033395;28;19925;-66
2024/03/15 01:20:38;;;;;;;;;;;;;;;;;;5052033;28;19928;-65
2024/03/15 01:23:04;;;;;;;;;;;;;;;;;;5048225;28;19921;-65
2024/03/15 01:25:30;;;;;;;;;;;;;;;;;;5043975;28;20374;-65
2024/03/15 01:27:59;;;;;;;;;;;;;;;;;;5041123;28;20302;-65
2024/03/15 01:30:25;;;;;;;;;;;;;;;;;;5054861;28;19925;-65
2024/03/15 01:32:51;;;;;;;;;;;;;;;;;;5053485;28;19924;-66
2024/03/15 01:35:17;;;;;;;;;;;;;;;;;;5037863;28;19936;-66
2024/03/15 01:37:43;;;;;;;;;;;;;;;;;;5049985;28;19924;-66
2024/03/15 01:40:09;;;;;;;;;;;;;;;;;;5054213;28;19967;-66
2024/03/15 01:42:35;;;;;;;;;;;;;;;;;;5031312;28;19975;-66
2024/03/15 01:45:01;;;;;;;;;;;;;;;;;;5038418;28;19924;-66
2024/03/15 01:47:27;;;;;;;;;;;;;;;;;;5052243;28;19921;-66
2024/03/15 01:49:56;;;;;;;;;;;;;;;;;;5040995;28;19966;-66
2024/03/15 01:52:22;;;;;;;;;;;;;;;;;;5045048;28;20349;-65
2024/03/15 01:54:48;;;;;;;;;;;;;;;;;;5033618;28;20009;-66
2024/03/15 01:57:13;;;;;;;;;;;;;;;;;;5025459;28;20008;-64
2024/03/15 01:59:41;;;;;;;;;;;;;;;;;;5049548;28;19921;-65
2024/03/15 02:02:09;;;;;;;;;;;;;;;;;;5031510;28;19920;-65
2024/03/15 02:04:35;;;;;;;;;;;;;;;;;;5056808;28;19933;-65
2024/03/15 02:07:01;;;;;;;;;;;;;;;;;;5054908;28;19925;-65
2024/03/15 02:09:28;;;;;;;;;;;;;;;;;;5047150;28;19924;-65
2024/03/15 02:11:54;;;;;;;;;;;;;;;;;;5049088;28;20003;-64
2024/03/15 02:14:20;;;;;;;;;;;;;;;;;;5048113;28;20633;-65
2024/03/15 02:16:46;;;;;;;;;;;;;;;;;;5051888;28;20012;-65
2024/03/15 02:19:12;;;;;;;;;;;;;;;;;;5029067;28;19921;-65
2024/03/15 02:21:37;;;;;;;;;;;;;;;;;;5034213;28;19927;-65
2024/03/15 02:24:05;;;;;;;;;;;;;;;;;;5039257;28;19922;-65
2024/03/15 02:26:32;;;;;;;;;;;;;;;;;;5041731;28;19935;-65
2024/03/15 02:28:58;;;;;;;;;;;;;;;;;;5038017;28;19925;-65
2024/03/15 02:31:24;;;;;;;;;;;;;;;;;;5036468;28;19921;-65
2024/03/15 02:33:50;;;;;;;;;;;;;;;;;;5024491;28;19936;-65
2024/03/15 02:36:16;;;;;;;;;;;;;;;;;;5044753;28;19950;-66
2024/03/15 02:38:41;;;;;;;;;;;;;;;;;;5013660;28;19932;-65
2024/03/15 02:41:13;;;;;;;;;;;;;;;;;;5038373;28;19940;-65
2024/03/15 02:43:39;;;;;;;;;;;;;;;;;;5042194;28;19924;-66
2024/03/15 02:46:05;;;;;;;;;;;;;;;;;;5030295;28;20056;-65
2024/03/15 02:48:32;;;;;;;;;;;;;;;;;;5044507;28;19999;-65
2024/03/15 02:50:58;;;;;;;;;;;;;;;;;;5040213;28;19921;-66
2024/03/15 02:53:24;;;;;;;;;;;;;;;;;;5022349;28;19932;-66
2024/03/15 02:55:50;;;;;;;;;;;;;;;;;;5031549;28;19925;-66
2024/03/15 02:58:16;;;;;;;;;;;;;;;;;;5049023;28;19921;-64
2024/03/15 03:00:42;;;;;;;;;;;;;;;;;;5044032;28;19932;-64
2024/03/15 03:03:10;;;;;;;;;;;;;;;;;;5038739;28;20386;-65
2024/03/15 03:05:36;;;;;;;;;;;;;;;;;;5049923;28;20011;-66
2024/03/15 03:08:03;;;;;;;;;;;;;;;;;;5050161;28;20015;-66
2024/03/15 03:10:29;;;;;;;;;;;;;;;;;;5056047;28;20036;-65
2024/03/15 03:12:55;;;;;;;;;;;;;;;;;;5052564;28;20344;-65
2024/03/15 03:15:21;;;;;;;;;;;;;;;;;;5045931;28;19921;-65
2024/03/15 03:17:47;;;;;;;;;;;;;;;;;;5032592;28;19921;-66
2024/03/15 03:20:18;;;;;;;;;;;;;;;;;;5040615;28;19932;-66
2024/03/15 03:22:45;;;;;;;;;;;;;;;;;;5051989;28;19935;-65
2024/03/15 03:25:11;;;;;;;;;;;;;;;;;;5051430;28;19925;-64
2024/03/15 03:27:36;;;;;;;;;;;;;;;;;;5046786;28;19936;-65
2024/03/15 03:30:03;;;;;;;;;;;;;;;;;;5036431;28;19932;-65
2024/03/15 03:32:29;;;;;;;;;;;;;;;;;;5043559;28;19925;-65
2024/03/15 03:34:55;;;;;;;;;;;;;;;;;;5049144;28;19929;-65
2024/03/15 03:37:22;;;;;;;;;;;;;;;;;;5045384;28;19924;-66
2024/03/15 03:39:48;;;;;;;;;;;;;;;;;;5058222;28;19956;-65
2024/03/15 03:42:14;;;;;;;;;;;;;;;;;;5051839;28;19928;-66
2024/03/15 03:44:41;;;;;;;;;;;;;;;;;;5046386;28;19933;-66
2024/03/15 03:47:07;;;;;;;;;;;;;;;;;;5032080;28;20317;-65
2024/03/15 03:49:33;;;;;;;;;;;;;;;;;;5055323;28;19955;-65
2024/03/15 03:51:59;;;;;;;;;;;;;;;;;;5048982;28;19925;-66
2024/03/15 03:54:25;;;;;;;;;;;;;;;;;;5037564;28;19928;-66
2024/03/15 03:56:50;;;;;;;;;;;;;;;;;;5027460;28;19928;-66
2024/03/15 03:59:16;;;;;;;;;;;;;;;;;;5028858;28;20418;-66
2024/03/15 04:01:43;;;;;;;;;;;;;;;;;;5050116;28;19925;-66
2024/03/15 04:04:08;;;;;;;;;;;;;;;;;;5049279;28;20380;-66
2024/03/15 04:06:35;;;;;;;;;;;;;;;;;;5054822;28;19924;-64
2024/03/15 04:09:01;;;;;;;;;;;;;;;;;;5054292;28;19928;-64
2024/03/15 04:11:28;;;;;;;;;;;;;;;;;;5044585;28;19983;-65
2024/03/15 04:13:54;;;;;;;;;;;;;;;;;;5030449;28;19936;-64
2024/03/15 04:16:21;;;;;;;;;;;;;;;;;;5054916;28;19925;-65
2024/03/15 04:18:47;;;;;;;;;;;;;;;;;;5038625;28;19925;-65
2024/03/15 04:21:14;;;;;;;;;;;;;;;;;;5051235;28;19924;-65
2024/03/15 04:23:42;;;;;;;;;;;;;;;;;;5049855;28;20309;-65
2024/03/15 04:26:09;;;;;;;;;;;;;;;;;;5013460;28;20397;-66
2024/03/15 04:28:37;;;;;;;;;;;;;;;;;;5048720;28;19947;-66
2024/03/15 04:31:05;;;;;;;;;;;;;;;;;;5053809;28;20282;-66
2024/03/15 04:33:32;;;;;;;;;;;;;;;;;;5046910;28;19951;-66
2024/03/15 04:36:04;;;;;;;;;;;;;;;;;;5049219;28;20020;-65
2024/03/15 04:38:30;;;;;;;;;;;;;;;;;;5051602;28;20188;-65
2024/03/15 04:40:55;;;;;;;;;;;;;;;;;;5051324;28;20313;-66
2024/03/15 04:43:21;;;;;;;;;;;;;;;;;;5048691;28;19929;-66
2024/03/15 04:45:48;;;;;;;;;;;;;;;;;;5053566;28;20596;-66
2024/03/15 04:48:14;;;;;;;;;;;;;;;;;;5026967;28;20385;-64
2024/03/15 04:50:40;;;;;;;;;;;;;;;;;;5040035;28;19925;-66
2024/03/15 04:53:06;;;;;;;;;;;;;;;;;;5053956;28;19964;-66
2024/03/15 04:55:33;;;;;;;;;;;;;;;;;;5051703;28;19956;-66
2024/03/15 04:58:00;;;;;;;;;;;;;;;;;;5052720;28;19925;-66
2024/03/15 05:00:26;;;;;;;;;;;;;;;;;;5048148;28;19984;-66
2024/03/15 05:02:52;;;;;;;;;;;;;;;;;;5047453;28;19943;-66
2024/03/15 05:05:18;;;;;;;;;;;;;;;;;;5050593;28;20325;-65
2024/03/15 05:07:44;;;;;;;;;;;;;;;;;;5028711;28;19925;-65
2024/03/15 05:10:14;;;;;;;;;;;;;;;;;;5053489;28;20090;-65
2024/03/15 05:12:40;;;;;;;;;;;;;;;;;;5054817;28;20027;-66
2024/03/15 05:15:06;;;;;;;;;;;;;;;;;;5033370;28;20020;-66
2024/03/15 05:17:32;;;;;;;;;;;;;;;;;;5049084;28;19948;-66
2024/03/15 05:19:58;;;;;;;;;;;;;;;;;;5022618;28;20007;-66
2024/03/15 05:22:24;;;;;;;;;;;;;;;;;;5034328;28;20441;-66
2024/03/15 05:24:51;;;;;;;;;;;;;;;;;;5031071;28;19982;-65
2024/03/15 05:27:16;;;;;;;;;;;;;;;;;;5043460;28;19968;-65
2024/03/15 05:29:42;;;;;;;;;;;;;;;;;;5016664;28;20395;-66
2024/03/15 05:32:08;;;;;;;;;;;;;;;;;;5041477;28;20015;-66
2024/03/15 05:34:34;;;;;;;;;;;;;;;;;;5042662;28;20014;-66
2024/03/15 05:37:01;;;;;;;;;;;;;;;;;;5040975;28;19928;-66
2024/03/15 05:39:28;;;;;;;;;;;;;;;;;;5041179;28;19967;-66
2024/03/15 05:41:54;;;;;;;;;;;;;;;;;;5040005;28;19921;-66
2024/03/15 05:44:20;;;;;;;;;;;;;;;;;;5040339;28;20397;-66
2024/03/15 05:46:46;;;;;;;;;;;;;;;;;;5016446;28;19927;-66
2024/03/15 05:49:13;;;;;;;;;;;;;;;;;;5052593;28;20011;-66
2024/03/15 05:51:39;;;;;;;;;;;;;;;;;;5030908;28;19951;-66
2024/03/15 05:54:05;;;;;;;;;;;;;;;;;;5047232;28;19955;-66
2024/03/15 05:56:31;;;;;;;;;;;;;;;;;;5017515;28;20294;-66
2024/03/15 05:58:57;;;;;;;;;;;;;;;;;;5032043;28;19921;-66
2024/03/15 06:01:23;;;;;;;;;;;;;;;;;;5046665;28;19929;-66
2024/03/15 06:03:49;;;;;;;;;;;;;;;;;;5034140;28;19970;-66
2024/03/15 06:06:15;;;;;;;;;;;;;;;;;;5051177;28;19925;-66
2024/03/15 06:08:42;;;;;;;;;;;;;;;;;;5032560;28;19920;-66
2024/03/15 06:11:08;;;;;;;;;;;;;;;;;;5040282;28;19929;-65
2024/03/15 06:13:36;;;;;;;;;;;;;;;;;;5037500;28;20062;-65
2024/03/15 06:16:01;;;;;;;;;;;;;;;;;;5049624;28;19936;-67
2024/03/15 06:18:27;;;;;;;;;;;;;;;;;;5025793;28;19920;-66
2024/03/15 06:20:53;;;;;;;;;;;;;;;;;;5026118;28;19943;-66
2024/03/15 06:23:19;;;;;;;;;;;;;;;;;;5029825;28;19925;-65
2024/03/15 06:25:46;;;;;;;;;;;;;;;;;;5047372;28;19924;-65
2024/03/15 06:28:13;;;;;;;;;;;;;;;;;;5041723;28;19968;-66
2024/03/15 06:30:45;;;;;;;;;;;;;;;;;;5033244;28;19925;-66
2024/03/15 06:33:11;;;;;;;;;;;;;;;;;;5028086;28;20015;-66
2024/03/15 06:35:36;;;;;;;;;;;;;;;;;;5047397;28;20003;-66
2024/03/15 06:38:27;;;;;;;;;;;;;;;;;;5050462;28;20439;-66
2024/03/15 06:40:56;;;;;;;;;;;;;;;;;;5018232;28;19921;-66
2024/03/15 06:46:19;;;;;;;;;;;;;;;;;;5029848;28;19924;-66
2024/03/15 06:48:55;;;;;;;;;;;;;;;;;;5031801;28;19927;-66
2024/03/15 06:54:06;;;;;;;;;;;;;;;;;;5028029;28;19925;-66
2024/03/15 06:56:32;;;;;;;;;;;;;;;;;;5019162;28;19924;-66
2024/03/15 06:58:58;;;;;;;;;;;;;;;;;;5036452;28;20001;-65
2024/03/15 07:01:27;;;;;;;;;;;;;;;;;;5039699;28;19921;-66
2024/03/15 07:03:54;;;;;;;;;;;;;;;;;;5041333;28;19925;-66
2024/03/15 07:06:20;;;;;;;;;;;;;;;;;;5034943;28;19921;-65
2024/03/15 07:08:46;;;;;;;;;;;;;;;;;;5026927;28;19928;-65
2024/03/15 07:11:12;;;;;;;;;;;;;;;;;;5045070;28;20637;-66
2024/03/15 07:13:38;;;;;;;;;;;;;;;;;;5049779;28;19936;-66
2024/03/15 07:16:04;;;;;;;;;;;;;;;;;;5039519;28;19929;-66
2024/03/15 07:18:29;;;;;;;;;;;;;;;;;;5040416;28;19944;-66
2024/03/15 07:20:56;;;;;;;;;;;;;;;;;;5047168;28;19924;-66
2024/03/15 07:23:22;;;;;;;;;;;;;;;;;;5029325;28;19940;-66
2024/03/15 07:25:49;;;;;;;;;;;;;;;;;;5023537;28;19921;-66
2024/03/15 07:28:17;;;;;;;;;;;;;;;;;;5034405;28;19975;-66
2024/03/15 07:30:46;;;;;;;;;;;;;;;;;;5038546;28;19960;-66
2024/03/15 07:33:12;;;;;;;;;;;;;;;;;;5032385;28;19968;-66
2024/03/15 07:35:40;;;;;;;;;;;;;;;;;;5023327;28;19954;-66
2024/03/15 07:38:06;;;;;;;;;;;;;;;;;;5041601;28;19921;-66
2024/03/15 07:40:32;;;;;;;;;;;;;;;;;;5050835;28;20302;-66
2024/03/15 07:42:58;;;;;;;;;;;;;;;;;;5051331;28;20313;-65
2024/03/15 07:45:24;;;;;;;;;;;;;;;;;;5025258;28;19943;-65
2024/03/15 07:47:50;;;;;;;;;;;;;;;;;;5051153;28;19937;-65
2024/03/15 07:50:16;;;;;;;;;;;;;;;;;;5049958;28;19924;-66
2024/03/15 07:52:42;;;;;;;;;;;;;;;;;;5049254;28;19933;-66
2024/03/15 07:55:09;;;;;;;;;;;;;;;;;;5050657;28;20020;-66
2024/03/15 07:57:35;;;;;;;;;;;;;;;;;;5029654;28;20031;-66
2024/03/15 08:00:04;;;;;;;;;;;;;;;;;;5051120;28;20016;-68
2024/03/15 08:02:31;;;;;;;;;;;;;;;;;;5026087;28;20204;-68
2024/03/15 08:04:57;;;;;;;;;;;;;;;;;;5052621;28;19927;-68
2024/03/15 08:07:24;;;;;;;;;;;;;;;;;;5046343;28;20059;-68
2024/03/15 08:09:50;;;;;;;;;;;;;;;;;;5015167;28;19927;-68
2024/03/15 08:12:16;;;;;;;;;;;;;;;;;;5045859;28;19937;-68
2024/03/15 08:14:42;;;;;;;;;;;;;;;;;;5049981;28;19920;-69
2024/03/15 08:17:08;;;;;;;;;;;;;;;;;;5048770;28;19995;-69
2024/03/15 08:19:34;;;;;;;;;;;;;;;;;;5051650;28;19924;-69
2024/03/15 08:22:01;;;;;;;;;;;;;;;;;;5015185;28;19925;-68
2024/03/15 08:24:27;;;;;;;;;;;;;;;;;;5033121;28;19920;-69
2024/03/15 08:26:53;;;;;;;;;;;;;;;;;;5056794;28;20312;-69
2024/03/15 08:29:21;;;;;;;;;;;;;;;;;;5052636;28;19924;-68
2024/03/15 08:31:50;;;;;;;;;;;;;;;;;;5052537;28;20350;-68
2024/03/15 08:34:18;;;;;;;;;;;;;;;;;;5044868;28;19925;-69
2024/03/15 08:36:44;;;;;;;;;;;;;;;;;;5038663;28;19952;-69
2024/03/15 08:39:15;;;;;;;;;;;;;;;;;;5053577;28;20373;-69
2024/03/15 08:41:44;;;;;;;;;;;;;;;;;;5048836;28;20429;-68
2024/03/15 08:44:10;;;;;;;;;;;;;;;;;;5057032;28;19993;-68
2024/03/15 08:46:36;;;;;;;;;;;;;;;;;;5048943;28;20304;-68
2024/03/15 08:49:02;;;;;;;;;;;;;;;;;;5041028;28;19920;-68
2024/03/15 08:51:28;;;;;;;;;;;;;;;;;;5036519;28;20430;-67
2024/03/15 08:53:54;;;;;;;;;;;;;;;;;;5040254;28;20059;-68
2024/03/15 08:56:21;;;;;;;;;;;;;;;;;;5064752;23;20393;-62
2024/03/15 08:58:49;;;;;;;;;;;;;;;;;;5086825;28;19939;-62
2024/03/15 09:01:16;;;;;;;;;;;;;;;;;;5090413;28;19928;-66
2024/03/15 09:03:42;;;;;;;;;;;;;;;;;;5090053;28;19973;-66
2024/03/15 09:06:08;;;;;;;;;;;;;;;;;;5088432;28;19944;-66
2024/03/15 09:08:34;;;;;;;;;;;;;;;;;;5093051;28;19924;-65
2024/03/15 09:11:01;;;;;;;;;;;;;;;;;;5065684;28;19924;-65
2024/03/15 09:13:27;;;;;;;;;;;;;;;;;;5090999;28;19943;-65
2024/03/15 09:15:55;;;;;;;;;;;;;;;;;;5075292;28;20269;-65
2024/03/15 09:18:21;;;;;;;;;;;;;;;;;;5091123;28;19933;-65
2024/03/15 09:20:47;;;;;;;;;;;;;;;;;;5071016;28;19966;-65
2024/03/15 09:23:14;;;;;;;;;;;;;;;;;;5077826;28;19964;-65
2024/03/15 09:25:42;;;;;;;;;;;;;;;;;;5082454;28;19993;-65
2024/03/15 09:28:10;;;;;;;;;;;;;;;;;;5087405;28;19959;-65
2024/03/15 09:30:54;;;;;;;;;;;;;;;;;;5085484;28;19920;-65
2024/03/15 09:33:20;;;;;;;;;;;;;;;;;;5087309;28;19934;-65
2024/03/15 09:35:46;;;;;;;;;;;;;;;;;;5072655;28;20011;-65
2024/03/15 09:38:12;;;;;;;;;;;;;;;;;;5050648;28;19931;-65
2024/03/15 09:40:38;;;;;;;;;;;;;;;;;;5073054;28;19924;-66
2024/03/15 09:43:04;;;;;;;;;;;;;;;;;;5085518;28;19924;-65
2024/03/15 09:45:30;;;;;;;;;;;;;;;;;;5058114;28;19924;-65
2024/03/15 09:47:56;;;;;;;;;;;;;;;;;;5089842;28;20416;-65
2024/03/15 09:50:23;;;;;;;;;;;;;;;;;;5090203;28;20018;-65
2024/03/15 09:52:50;;;;;;;;;;;;;;;;;;5091795;28;19932;-65
2024/03/15 09:55:19;;;;;;;;;;;;;;;;;;5080714;28;19926;-65
2024/03/15 09:57:46;;;;;;;;;;;;;;;;;;5072308;28;20401;-65
2024/03/15 10:00:12;;;;;;;;;;;;;;;;;;5093339;28;19969;-65
2024/03/15 10:02:38;;;;;;;;;;;;;;;;;;5076551;28;20498;-66
2024/03/15 10:05:07;;;;;;;;;;;;;;;;;;5083303;28;19938;-66
2024/03/15 10:07:33;;;;;;;;;;;;;;;;;;5076203;28;19952;-65
2024/03/15 10:09:59;;;;;;;;;;;;;;;;;;5091535;28;21814;-65
2024/03/15 10:12:25;;;;;;;;;;;;;;;;;;5070594;28;19971;-61
2024/03/15 10:14:52;;;;;;;;;;;;;;;;;;5091877;28;19955;-61
2024/03/15 10:17:17;;;;;;;;;;;;;;;;;;5094687;28;19973;-64
2024/03/15 10:19:43;;;;;;;;;;;;;;;;;;5091050;28;19920;-62
2024/03/15 10:22:09;;;;;;;;;;;;;;;;;;5094634;28;19924;-62
2024/03/15 10:24:37;;;;;;;;;;;;;;;;;;5093431;28;20618;-62
2024/03/15 10:27:05;;;;;;;;;;;;;;;;;;5094808;28;19931;-67
2024/03/15 10:29:31;;;;;;;;;;;;;;;;;;5093460;28;20009;-68
2024/03/15 10:31:56;;;;;;;;;;;;;;;;;;5098048;28;19970;-68
2024/03/15 10:34:22;;;;;;;;;;;;;;;;;;5092984;28;19937;-68
2024/03/15 10:36:49;;;;;;;;;;;;;;;;;;5086533;28;19920;-68
2024/03/15 10:39:15;;;;;;;;;;;;;;;;;;5103947;28;20276;-68
2024/03/15 10:41:41;;;;;;;;;;;;;;;;;;5091854;28;19923;-69
2024/03/15 10:44:06;;;;;;;;;;;;;;;;;;5098660;28;19919;-68
2024/03/15 10:46:32;;;;;;;;;;;;;;;;;;5059787;28;19929;-67
2024/03/15 10:48:59;;;;;;;;;;;;;;;;;;5073961;28;20003;-68
2024/03/15 10:51:25;;;;;;;;;;;;;;;;;;5092918;28;19920;-68
2024/03/15 10:53:51;;;;;;;;;;;;;;;;;;5090082;28;19924;-68
2024/03/15 10:56:17;;;;;;;;;;;;;;;;;;5061069;28;19953;-67
2024/03/15 10:58:44;;;;;;;;;;;;;;;;;;5060657;28;20277;-64
2024/03/15 11:01:10;;;;;;;;;;;;;;;;;;5088464;28;19927;-64
2024/03/15 11:03:36;;;;;;;;;;;;;;;;;;5086716;28;19924;-65
2024/03/15 11:06:02;;;;;;;;;;;;;;;;;;5079543;28;19930;-65
2024/03/15 11:08:28;;;;;;;;;;;;;;;;;;5091232;28;19928;-65
2024/03/15 11:10:54;;;;;;;;;;;;;;;;;;5081792;28;19920;-65
2024/03/15 11:13:20;;;;;;;;;;;;;;;;;;5079618;28;19932;-65
2024/03/15 11:15:46;;;;;;;;;;;;;;;;;;5088563;28;19920;-66
2024/03/15 11:18:12;;;;;;;;;;;;;;;;;;5068032;28;20382;-66
2024/03/15 11:20:38;;;;;;;;;;;;;;;;;;5090819;28;20007;-66
2024/03/15 11:23:04;;;;;;;;;;;;;;;;;;5076242;28;20373;-66
2024/03/15 11:25:32;;;;;;;;;;;;;;;;;;5099142;28;19920;-66
2024/03/15 11:27:58;;;;;;;;;;;;;;;;;;5092708;28;19920;-64
2024/03/15 11:30:24;;;;;;;;;;;;;;;;;;5092791;28;19927;-64
2024/03/15 11:32:50;;;;;;;;;;;;;;;;;;5100017;28;20363;-63
2024/03/15 11:35:16;;;;;;;;;;;;;;;;;;5070908;28;19978;-63
2024/03/15 11:37:41;;;;;;;;;;;;;;;;;;5093346;28;19970;-64
2024/03/15 11:40:08;;;;;;;;;;;;;;;;;;5072322;28;19946;-66
2024/03/15 11:42:34;;;;;;;;;;;;;;;;;;5092722;28;19923;-66
2024/03/15 11:45:01;;;;;;;;;;;;;;;;;;5085494;28;20392;-66
2024/03/15 11:47:27;;;;;;;;;;;;;;;;;;5068897;28;19931;-67
2024/03/15 11:49:53;;;;;;;;;;;;;;;;;;5099156;28;20339;-66
2024/03/15 11:52:20;;;;;;;;;;;;;;;;;;5069996;28;19927;-65
2024/03/15 11:54:46;;;;;;;;;;;;;;;;;;5095731;28;19924;-65
2024/03/15 11:57:12;;;;;;;;;;;;;;;;;;5081773;28;19920;-66
2024/03/15 11:59:37;;;;;;;;;;;;;;;;;;5089683;28;19930;-66
2024/03/15 12:02:04;;;;;;;;;;;;;;;;;;5089361;28;20296;-66
2024/03/15 12:04:32;;;;;;;;;;;;;;;;;;5091640;28;19951;-66
2024/03/15 12:06:58;;;;;;;;;;;;;;;;;;5090175;28;20537;-66
2024/03/15 12:09:24;;;;;;;;;;;;;;;;;;5075317;28;19996;-65
2024/03/15 12:11:50;;;;;;;;;;;;;;;;;;5091562;28;20015;-65
2024/03/15 12:14:16;;;;;;;;;;;;;;;;;;5088994;28;19954;-65
2024/03/15 12:16:45;;;;;;;;;;;;;;;;;;5074630;28;19920;-65
2024/03/15 12:19:11;;;;;;;;;;;;;;;;;;5089647;28;19947;-63
2024/03/15 12:21:37;;;;;;;;;;;;;;;;;;5074884;28;19924;-64
2024/03/15 12:24:03;;;;;;;;;;;;;;;;;;5090085;28;20030;-63
2024/03/15 12:26:29;;;;;;;;;;;;;;;;;;5087830;28;19931;-64
2024/03/15 12:28:55;;;;;;;;;;;;;;;;;;5093626;28;19935;-64
2024/03/15 12:31:21;;;;;;;;;;;;;;;;;;5086937;28;19924;-65
2024/03/15 12:33:47;;;;;;;;;;;;;;;;;;5093553;28;19924;-65
2024/03/15 12:36:13;;;;;;;;;;;;;;;;;;5090281;28;20366;-65
2024/03/15 12:38:39;;;;;;;;;;;;;;;;;;5071546;28;20555;-65
2024/03/15 12:41:05;;;;;;;;;;;;;;;;;;5090310;28;19923;-65
2024/03/15 12:43:31;;;;;;;;;;;;;;;;;;5089534;28;20365;-65
2024/03/15 12:45:57;;;;;;;;;;;;;;;;;;5091306;28;19920;-65
2024/03/15 12:48:22;;;;;;;;;;;;;;;;;;5076652;28;19931;-65
2024/03/15 12:50:49;;;;;;;;;;;;;;;;;;5073289;28;19925;-65
2024/03/15 12:53:16;;;;;;;;;;;;;;;;;;5092103;28;20353;-65
2024/03/15 12:55:42;;;;;;;;;;;;;;;;;;5056585;28;19926;-65
2024/03/15 12:58:08;;;;;;;;;;;;;;;;;;5090408;28;19924;-65
2024/03/15 13:00:34;;;;;;;;;;;;;;;;;;5068015;28;20685;-65
2024/03/15 13:03:00;;;;;;;;;;;;;;;;;;5093291;28;19924;-65
2024/03/15 13:05:26;;;;;;;;;;;;;;;;;;5090953;28;20090;-65
2024/03/15 13:07:52;;;;;;;;;;;;;;;;;;5093678;28;19930;-64
2024/03/15 13:10:19;;;;;;;;;;;;;;;;;;5092476;28;20678;-64
2024/03/15 13:12:45;;;;;;;;;;;;;;;;;;5084710;28;20398;-64
2024/03/15 13:15:11;;;;;;;;;;;;;;;;;;5089094;28;19931;-64
2024/03/15 13:17:37;;;;;;;;;;;;;;;;;;5075572;28;19927;-64
2024/03/15 13:20:03;;;;;;;;;;;;;;;;;;5077815;28;20341;-64
2024/03/15 13:22:30;;;;;;;;;;;;;;;;;;5092876;28;19974;-65
2024/03/15 13:24:56;;;;;;;;;;;;;;;;;;5061493;28;19920;-65
2024/03/15 13:27:22;;;;;;;;;;;;;;;;;;5092951;28;19924;-65
2024/03/15 13:29:49;;;;;;;;;;;;;;;;;;5069712;28;20258;-65
2024/03/15 13:32:15;;;;;;;;;;;;;;;;;;5075041;28;19924;-65
2024/03/15 13:34:41;;;;;;;;;;;;;;;;;;5076631;28;20003;-65
2024/03/15 13:37:06;;;;;;;;;;;;;;;;;;5090241;28;19928;-65
2024/03/15 13:39:33;;;;;;;;;;;;;;;;;;5089032;28;19928;-65
2024/03/15 13:41:59;;;;;;;;;;;;;;;;;;5094988;28;19997;-65
2024/03/15 13:44:25;;;;;;;;;;;;;;;;;;5091051;28;19920;-65
2024/03/15 13:46:51;;;;;;;;;;;;;;;;;;5084938;28;19988;-65
2024/03/15 13:49:17;;;;;;;;;;;;;;;;;;5074874;28;20315;-67
2024/03/15 13:51:43;;;;;;;;;;;;;;;;;;5085415;28;20290;-66
2024/03/15 13:54:10;;;;;;;;;;;;;;;;;;5080562;28;19982;-66
2024/03/15 13:56:36;;;;;;;;;;;;;;;;;;5087316;28;20363;-66
2024/03/15 13:59:03;;;;;;;;;;;;;;;;;;5082820;28;20058;-66
2024/03/15 14:01:29;;;;;;;;;;;;;;;;;;5088198;28;20029;-64
2024/03/15 14:03:58;;;;;;;;;;;;;;;;;;5090650;28;20072;-64
2024/03/15 14:06:24;;;;;;;;;;;;;;;;;;5068664;28;20077;-64
2024/03/15 14:08:53;;;;;;;;;;;;;;;;;;5091834;28;20328;-64
2024/03/15 14:11:19;;;;;;;;;;;;;;;;;;5089589;28;19930;-64
2024/03/15 14:13:46;;;;;;;;;;;;;;;;;;5091109;28;19971;-65
2024/03/15 14:16:13;;;;;;;;;;;;;;;;;;5073764;28;19927;-64
2024/03/15 14:18:39;;;;;;;;;;;;;;;;;;5071112;28;20796;-65
2024/03/15 14:21:05;;;;;;;;;;;;;;;;;;5090989;28;20022;-65
2024/03/15 14:23:31;;;;;;;;;;;;;;;;;;5090525;28;20053;-63
2024/03/15 14:25:57;;;;;;;;;;;;;;;;;;5088608;28;20393;-64
2024/03/15 14:28:23;;;;;;;;;;;;;;;;;;5088634;28;19924;-63
2024/03/15 14:30:49;;;;;;;;;;;;;;;;;;5088946;28;19930;-63
2024/03/15 14:33:15;;;;;;;;;;;;;;;;;;5089413;28;19931;-65
2024/03/15 14:35:41;;;;;;;;;;;;;;;;;;5091688;28;19924;-65
2024/03/15 14:38:10;;;;;;;;;;;;;;;;;;5088711;28;19927;-65
2024/03/15 14:40:37;;;;;;;;;;;;;;;;;;5090188;28;20001;-64
2024/03/15 14:43:06;;;;;;;;;;;;;;;;;;5090356;28;19974;-65
2024/03/15 14:45:35;;;;;;;;;;;;;;;;;;5088177;28;19920;-64
2024/03/15 14:48:03;;;;;;;;;;;;;;;;;;5090550;28;19920;-64
2024/03/15 14:50:29;;;;;;;;;;;;;;;;;;5070619;28;20462;-64
2024/03/15 14:52:55;;;;;;;;;;;;;;;;;;5088569;28;20373;-65
2024/03/15 14:55:26;;;;;;;;;;;;;;;;;;5072821;28;19927;-65
2024/03/15 14:57:52;;;;;;;;;;;;;;;;;;5088437;28;19930;-65
2024/03/15 15:00:18;;;;;;;;;;;;;;;;;;5087946;28;20010;-65
2024/03/15 15:02:47;;;;;;;;;;;;;;;;;;5090482;28;20015;-65
2024/03/15 15:05:13;;;;;;;;;;;;;;;;;;5090002;28;19924;-65
2024/03/15 15:07:39;;;;;;;;;;;;;;;;;;5090052;28;19924;-65
2024/03/15 15:10:10;;;;;;;;;;;;;;;;;;5090840;28;20460;-65
2024/03/15 15:12:35;;;;;;;;;;;;;;;;;;5087607;28;19931;-64
2024/03/15 15:15:02;;;;;;;;;;;;;;;;;;5091080;28;19920;-66
2024/03/15 15:17:28;;;;;;;;;;;;;;;;;;5089445;28;19951;-65
2024/03/15 15:19:54;;;;;;;;;;;;;;;;;;5073842;28;20389;-64
2024/03/15 15:22:20;;;;;;;;;;;;;;;;;;5071491;28;20327;-65
2024/03/15 15:24:47;;;;;;;;;;;;;;;;;;5095497;28;19920;-65
2024/03/15 15:27:14;;;;;;;;;;;;;;;;;;5093635;28;19920;-65
2024/03/15 15:29:40;;;;;;;;;;;;;;;;;;5049905;28;19931;-65
2024/03/15 15:32:07;;;;;;;;;;;;;;;;;;5091307;28;19928;-65
2024/03/15 15:34:33;;;;;;;;;;;;;;;;;;5064218;28;19935;-66
2024/03/15 15:37:01;;;;;;;;;;;;;;;;;;5089183;28;19928;-66
2024/03/15 15:39:27;;;;;;;;;;;;;;;;;;5090076;28;19920;-66
2024/03/15 15:41:54;;;;;;;;;;;;;;;;;;5077512;28;20384;-66
2024/03/15 15:44:20;;;;;;;;;;;;;;;;;;5091713;28;20735;-66
2024/03/15 15:46:46;;;;;;;;;;;;;;;;;;5072104;28;19928;-66
2024/03/15 15:49:12;;;;;;;;;;;;;;;;;;5087041;28;19920;-66
2024/03/15 15:51:39;;;;;;;;;;;;;;;;;;5092696;28;19920;-66
2024/03/15 15:54:07;;;;;;;;;;;;;;;;;;5076111;28;19963;-66
2024/03/15 15:56:33;;;;;;;;;;;;;;;;;;5094235;28;20227;-65
2024/03/15 15:58:59;;;;;;;;;;;;;;;;;;5092866;28;19924;-65
2024/03/15 16:01:24;;;;;;;;;;;;;;;;;;5077027;28;19923;-64
2024/03/15 16:03:50;;;;;;;;;;;;;;;;;;5072938;28;19924;-64
2024/03/15 16:06:16;;;;;;;;;;;;;;;;;;5092900;28;19927;-65
2024/03/15 16:08:42;;;;;;;;;;;;;;;;;;5090403;28;19920;-66
2024/03/15 16:11:08;;;;;;;;;;;;;;;;;;5074386;28;19974;-63
2024/03/15 16:13:35;;;;;;;;;;;;;;;;;;5089876;28;19955;-64
2024/03/15 16:16:02;;;;;;;;;;;;;;;;;;5091482;28;19920;-64
2024/03/15 16:18:28;;;;;;;;;;;;;;;;;;5073575;28;19924;-64
2024/03/15 16:20:54;;;;;;;;;;;;;;;;;;5092786;28;20044;-64
2024/03/15 16:23:21;;;;;;;;;;;;;;;;;;5076313;28;19946;-66
2024/03/15 16:25:47;;;;;;;;;;;;;;;;;;5075691;28;19924;-64
2024/03/15 16:28:13;;;;;;;;;;;;;;;;;;5093483;28;20540;-65
2024/03/15 16:30:39;;;;;;;;;;;;;;;;;;5091582;28;20438;-65
2024/03/15 16:33:05;;;;;;;;;;;;;;;;;;5058708;28;19928;-65
2024/03/15 16:35:31;;;;;;;;;;;;;;;;;;5089658;28;19950;-64
2024/03/15 16:37:56;;;;;;;;;;;;;;;;;;5077081;28;20374;-64
2024/03/15 16:40:22;;;;;;;;;;;;;;;;;;5087050;28;20051;-66
2024/03/15 16:42:49;;;;;;;;;;;;;;;;;;5090988;28;19927;-66
2024/03/15 16:45:15;;;;;;;;;;;;;;;;;;5090534;28;19920;-64